createdAt,value
2023-06-29T00:00:32.429Z,14.13
2023-06-29T00:03:00.044Z,14.08
2023-06-29T00:05:27.522Z,14.03
2023-06-29T00:07:59.498Z,14.04
2023-06-29T00:10:27.174Z,14.06
2023-06-29T00:12:54.394Z,14.06
2023-06-29T00:15:21.635Z,14.10
2023-06-29T00:17:49.656Z,14.11
2023-06-29T00:20:17.319Z,14.13
2023-06-29T00:22:49.224Z,14.13
2023-06-29T00:25:18.386Z,14.13
2023-06-29T00:27:46.181Z,14.17
2023-06-29T00:30:14.450Z,14.30
2023-06-29T00:32:41.997Z,14.37
2023-06-29T00:35:09.747Z,14.30
2023-06-29T00:37:37.565Z,14.22
2023-06-29T00:40:06.377Z,14.23
2023-06-29T00:42:34.082Z,14.27
2023-06-29T00:45:02.598Z,14.29
2023-06-29T00:47:31.719Z,14.24
2023-06-29T00:50:01.381Z,14.18
2023-06-29T00:52:29.960Z,14.16
2023-06-29T00:54:59.630Z,14.10
2023-06-29T00:57:27.201Z,14.13
2023-06-29T00:59:56.199Z,14.19
2023-06-29T01:02:23.710Z,14.26
2023-06-29T01:04:52.016Z,14.30
2023-06-29T01:07:28.132Z,14.33
2023-06-29T01:09:56.725Z,14.33
2023-06-29T01:12:29.860Z,14.31
2023-06-29T01:14:57.300Z,14.35
2023-06-29T01:17:27.404Z,14.32
2023-06-29T01:19:56.452Z,14.32
2023-06-29T01:22:34.009Z,14.35
2023-06-29T01:25:01.281Z,14.36
2023-06-29T01:27:30.329Z,14.39
2023-06-29T01:30:06.580Z,14.44
2023-06-29T01:32:38.512Z,14.49
2023-06-29T01:35:08.985Z,14.51
2023-06-29T01:37:59.729Z,14.52
2023-06-29T01:40:29.565Z,14.63
2023-06-29T01:42:59.012Z,14.77
2023-06-29T01:45:26.760Z,14.84
2023-06-29T01:47:55.472Z,14.84
2023-06-29T01:50:27.110Z,14.82
2023-06-29T01:52:54.838Z,14.73
2023-06-29T01:55:22.571Z,14.66
2023-06-29T01:57:51.760Z,14.62
2023-06-29T02:00:19.670Z,14.58
2023-06-29T02:02:47.296Z,14.54
2023-06-29T02:05:15.186Z,14.45
2023-06-29T02:07:42.554Z,14.40
2023-06-29T02:10:10.887Z,14.35
2023-06-29T02:12:42.152Z,14.35
2023-06-29T02:15:10.873Z,14.42
2023-06-29T02:17:40.539Z,14.45
2023-06-29T02:20:12.458Z,14.51
2023-06-29T02:22:39.887Z,14.63
2023-06-29T02:25:11.753Z,14.69
2023-06-29T02:27:39.700Z,14.74
2023-06-29T02:30:07.712Z,14.83
2023-06-29T02:32:36.239Z,14.87
2023-06-29T02:35:06.098Z,14.88
2023-06-29T02:37:33.834Z,14.91
2023-06-29T02:40:01.839Z,14.94
2023-06-29T02:42:29.746Z,14.89
2023-06-29T02:44:57.597Z,14.75
2023-06-29T02:47:26.376Z,14.76
2023-06-29T02:49:53.596Z,14.68
2023-06-29T02:52:23.470Z,14.69
2023-06-29T02:54:53.468Z,14.73
2023-06-29T02:57:21.728Z,14.78
2023-06-29T02:59:49.214Z,14.88
2023-06-29T03:02:16.940Z,14.91
2023-06-29T03:04:44.707Z,14.97
2023-06-29T03:07:11.926Z,15.02
2023-06-29T03:09:41.476Z,15.11
2023-06-29T03:12:10.262Z,15.18
2023-06-29T03:14:37.980Z,15.24
2023-06-29T03:17:05.969Z,15.36
2023-06-29T03:19:33.720Z,15.40
2023-06-29T03:22:01.656Z,15.48
2023-06-29T03:24:29.181Z,15.67
2023-06-29T03:26:56.818Z,16.18
2023-06-29T03:29:24.050Z,16.97
2023-06-29T03:31:52.007Z,17.93
2023-06-29T03:34:19.645Z,19.09
2023-06-29T03:36:47.040Z,19.97
2023-06-29T03:39:15.096Z,20.88
2023-06-29T03:41:42.267Z,21.63
2023-06-29T03:44:10.103Z,22.42
2023-06-29T03:46:37.658Z,23.18
2023-06-29T03:49:05.434Z,23.72
2023-06-29T03:51:33.022Z,24.51
2023-06-29T03:54:00.604Z,25.32
2023-06-29T03:56:28.319Z,25.93
2023-06-29T03:58:55.682Z,26.29
2023-06-29T04:01:23.893Z,26.93
2023-06-29T04:03:52.041Z,27.22
2023-06-29T04:06:19.329Z,27.56
2023-06-29T04:08:47.018Z,27.82
2023-06-29T04:11:14.733Z,27.80
2023-06-29T04:13:41.965Z,27.14
2023-06-29T04:16:09.699Z,26.60
2023-06-29T04:18:41.554Z,25.95
2023-06-29T04:21:08.890Z,25.65
2023-06-29T04:23:36.454Z,25.77
2023-06-29T04:26:04.315Z,24.06
2023-06-29T04:28:36.181Z,22.96
2023-06-29T04:31:04.263Z,22.14
2023-06-29T04:33:32.050Z,21.52
2023-06-29T04:35:59.337Z,20.99
2023-06-29T04:38:29.011Z,20.56
2023-06-29T04:41:05.631Z,20.21
2023-06-29T04:43:33.383Z,20.04
2023-06-29T04:46:01.830Z,19.84
2023-06-29T04:48:39.006Z,19.44
2023-06-29T04:51:07.324Z,19.13
2023-06-29T04:53:36.253Z,18.92
2023-06-29T04:56:03.631Z,19.06
2023-06-29T04:58:32.224Z,19.59
2023-06-29T05:00:59.542Z,21.37
2023-06-29T05:03:27.722Z,22.82
2023-06-29T05:05:56.862Z,24.25
2023-06-29T05:08:24.066Z,26.58
2023-06-29T05:10:51.585Z,28.07
2023-06-29T05:13:19.152Z,29.56
2023-06-29T05:15:49.114Z,30.87
2023-06-29T05:18:17.491Z,30.71
2023-06-29T05:20:45.059Z,31.59
2023-06-29T05:23:12.965Z,32.24
2023-06-29T05:25:42.246Z,31.09
2023-06-29T05:28:10.891Z,32.71
2023-06-29T05:30:38.764Z,33.06
2023-06-29T05:33:06.333Z,32.92
2023-06-29T05:35:35.671Z,34.93
2023-06-29T05:38:03.203Z,35.96
2023-06-29T05:40:30.464Z,36.42
2023-06-29T05:42:58.091Z,37.56
2023-06-29T05:45:25.664Z,37.52
2023-06-29T05:47:53.152Z,37.86
2023-06-29T05:50:21.711Z,38.72
2023-06-29T05:52:51.137Z,35.13
2023-06-29T05:55:20.228Z,36.76
2023-06-29T05:57:48.457Z,37.24
2023-06-29T06:00:16.315Z,38.38
2023-06-29T06:02:44.444Z,37.09
2023-06-29T06:05:13.271Z,35.32
2023-06-29T06:07:40.905Z,33.97
2023-06-29T06:10:08.719Z,34.58
2023-06-29T06:12:35.996Z,34.05
2023-06-29T06:15:04.451Z,34.01
2023-06-29T06:17:31.924Z,33.96
2023-06-29T06:20:02.035Z,33.37
2023-06-29T06:22:29.253Z,32.50
2023-06-29T06:24:56.786Z,32.73
2023-06-29T06:27:24.907Z,33.21
2023-06-29T06:29:52.198Z,33.18
2023-06-29T06:32:21.393Z,34.62
2023-06-29T06:34:51.805Z,34.61
2023-06-29T06:37:19.589Z,33.85
2023-06-29T06:39:47.087Z,34.48
2023-06-29T06:42:16.071Z,34.00
2023-06-29T06:44:53.638Z,33.61
2023-06-29T06:47:21.952Z,34.63
2023-06-29T06:49:51.116Z,35.37
2023-06-29T06:52:18.631Z,35.66
2023-06-29T06:54:46.389Z,36.37
2023-06-29T06:57:13.581Z,37.05
2023-06-29T06:59:43.670Z,35.29
2023-06-29T07:02:11.260Z,35.16
2023-06-29T07:04:38.526Z,34.84
2023-06-29T07:07:07.592Z,33.15
2023-06-29T07:09:35.405Z,33.15
2023-06-29T07:12:02.723Z,33.24
2023-06-29T07:14:29.924Z,32.87
2023-06-29T07:16:57.432Z,32.94
2023-06-29T07:24:26.676Z,31.18
2023-06-29T07:26:54.703Z,29.53
2023-06-29T07:29:22.015Z,31.12
2023-06-29T07:31:50.495Z,30.16
2023-06-29T07:34:20.361Z,31.28
2023-06-29T07:36:48.110Z,31.27
2023-06-29T07:39:18.065Z,32.04
2023-06-29T07:41:46.190Z,32.96
2023-06-29T07:44:14.011Z,31.63
2023-06-29T07:46:42.044Z,31.45
2023-06-29T07:49:10.245Z,31.42
2023-06-29T07:51:38.174Z,30.93
2023-06-29T07:54:07.750Z,30.15
2023-06-29T08:34:03.150Z,27.85
2023-06-29T08:36:34.044Z,27.49
2023-06-29T08:39:01.686Z,29.88
2023-06-29T08:41:29.894Z,27.92
2023-06-29T08:43:57.466Z,28.93
2023-06-29T08:46:25.580Z,30.42
2023-06-29T08:48:52.828Z,29.87
2023-06-29T08:51:21.131Z,30.10
2023-06-29T08:53:53.266Z,29.79
2023-06-29T08:56:24.917Z,29.85
2023-06-29T08:58:54.682Z,28.40
2023-06-29T09:01:24.918Z,28.75
2023-06-29T09:03:52.974Z,29.82
2023-06-29T09:06:27.418Z,29.81
2023-06-29T09:08:56.533Z,28.47
2023-06-29T09:11:24.339Z,29.02
2023-06-29T09:13:51.544Z,28.68
2023-06-29T09:16:19.410Z,29.25
2023-06-29T09:18:55.567Z,29.29
2023-06-29T09:21:24.909Z,29.96
2023-06-29T09:23:52.305Z,29.65
2023-06-29T09:26:19.872Z,29.79
2023-06-29T09:28:47.894Z,30.44
2023-06-29T09:31:15.380Z,29.77
2023-06-29T09:33:42.680Z,29.49
2023-06-29T09:36:10.218Z,27.94
2023-06-29T09:38:38.850Z,28.41
2023-06-29T09:41:08.478Z,28.34
2023-06-29T09:43:36.431Z,29.02
2023-06-29T09:46:03.670Z,28.17
2023-06-29T09:51:03.743Z,28.46
2023-06-29T09:53:34.551Z,28.02
2023-06-29T09:56:04.419Z,28.40
2023-06-29T09:58:33.917Z,28.79
2023-06-29T10:01:01.446Z,28.92
2023-06-29T10:03:32.948Z,29.75
2023-06-29T10:06:10.766Z,30.08
2023-06-29T10:08:40.889Z,30.22
2023-06-29T10:11:12.058Z,29.44
2023-06-29T10:13:47.686Z,29.23
2023-06-29T10:16:16.509Z,28.91
2023-06-29T10:18:48.182Z,28.64
2023-06-29T10:21:16.197Z,27.68
2023-06-29T10:23:44.517Z,28.11
2023-06-29T10:26:12.606Z,28.37
2023-06-29T10:28:45.691Z,26.81
2023-06-29T10:31:18.457Z,27.02
2023-06-29T10:33:47.823Z,26.92
2023-06-29T10:36:18.571Z,25.94
2023-06-29T10:38:48.290Z,26.67
2023-06-29T10:41:29.297Z,27.38
2023-06-29T10:44:01.842Z,26.96
2023-06-29T10:46:44.190Z,27.13
2023-06-29T10:49:30.004Z,27.10
2023-06-29T10:52:05.738Z,27.04
2023-06-29T10:54:33.883Z,26.75
2023-06-29T10:57:09.852Z,27.25
2023-06-29T10:59:38.585Z,27.49
2023-06-29T11:02:06.702Z,27.75
2023-06-29T11:04:34.046Z,28.12
2023-06-29T11:07:11.199Z,28.55
2023-06-29T11:09:41.691Z,29.07
2023-06-29T11:12:09.458Z,28.40
2023-06-29T11:14:39.814Z,28.45
2023-06-29T11:17:10.324Z,27.57
2023-06-29T11:19:43.988Z,27.51
2023-06-29T11:22:13.989Z,27.37
2023-06-29T11:24:44.450Z,27.23
2023-06-29T11:27:12.253Z,27.26
2023-06-29T11:29:39.822Z,28.06
2023-06-29T11:32:13.723Z,27.81
2023-06-29T11:34:42.028Z,27.56
2023-06-29T11:40:00.685Z,28.45
2023-06-29T11:42:28.746Z,28.04
2023-06-29T11:45:04.651Z,27.69
2023-06-29T11:50:20.550Z,27.69
2023-06-29T11:52:55.413Z,27.35
2023-06-29T11:55:25.976Z,27.09
2023-06-29T11:57:56.467Z,26.72
2023-06-29T12:00:32.883Z,27.23
2023-06-29T12:03:08.339Z,27.56
2023-06-29T12:05:46.053Z,27.83
2023-06-29T12:08:16.415Z,26.83
2023-06-29T12:10:49.029Z,27.49
2023-06-29T12:13:20.761Z,28.17
2023-06-29T12:18:20.172Z,28.49
2023-06-29T12:20:48.878Z,28.38
2023-06-29T12:23:17.373Z,28.15
2023-06-29T12:25:49.377Z,29.05
2023-06-29T12:28:18.497Z,29.29
2023-06-29T12:30:49.020Z,28.73
2023-06-29T12:33:17.090Z,28.19
2023-06-29T12:35:45.320Z,27.63
2023-06-29T12:38:13.570Z,28.45
2023-06-29T12:40:41.412Z,28.34
2023-06-29T12:43:09.094Z,28.69
2023-06-29T12:45:37.123Z,29.18
2023-06-29T12:48:10.091Z,28.05
2023-06-29T12:50:40.603Z,27.78
2023-06-29T12:53:08.449Z,28.34
2023-06-29T12:55:39.449Z,28.49
2023-06-29T12:58:09.240Z,28.11
2023-06-29T13:00:37.175Z,27.36
2023-06-29T13:03:08.919Z,26.87
2023-06-29T13:05:53.352Z,26.97
2023-06-29T13:11:41.781Z,26.59
2023-06-29T13:14:10.785Z,27.01
2023-06-29T13:16:39.662Z,26.71
2023-06-29T13:19:07.129Z,27.23
2023-06-29T13:21:36.368Z,27.13
2023-06-29T13:27:34.893Z,26.75
2023-06-29T13:30:02.979Z,26.69
2023-06-29T13:32:34.042Z,26.76
2023-06-29T13:35:02.447Z,26.74
2023-06-29T13:37:30.429Z,26.99
2023-06-29T13:39:58.247Z,27.30
2023-06-29T13:42:26.104Z,27.52
2023-06-29T13:44:54.063Z,27.07
2023-06-29T13:50:41.923Z,27.42
2023-06-29T13:53:15.724Z,27.43
2023-06-29T13:55:44.556Z,26.53
2023-06-29T14:01:42.643Z,26.31
2023-06-29T14:04:11.704Z,26.73
2023-06-29T14:06:42.534Z,27.08
2023-06-29T14:09:12.412Z,27.37
2023-06-29T14:11:44.265Z,27.49
2023-06-29T14:14:12.741Z,27.59
2023-06-29T14:16:40.401Z,27.85
2023-06-29T14:19:10.973Z,27.59
2023-06-29T14:21:39.029Z,27.30
2023-06-29T14:24:06.948Z,27.18
2023-06-29T14:26:34.773Z,27.00
2023-06-29T14:29:02.993Z,26.73
2023-06-29T14:31:30.779Z,26.93
2023-06-29T14:34:00.073Z,27.17
2023-06-29T14:36:28.102Z,26.94
2023-06-29T14:38:56.158Z,27.30
2023-06-29T14:41:26.319Z,27.22
2023-06-29T14:43:54.481Z,27.73
2023-06-29T14:46:22.360Z,27.92
2023-06-29T14:48:50.308Z,28.23
2023-06-29T14:51:18.915Z,28.07
2023-06-29T14:53:46.815Z,28.26
2023-06-29T14:56:14.511Z,28.52
2023-06-29T14:58:42.840Z,28.52
2023-06-29T15:01:12.251Z,28.62
2023-06-29T15:03:40.599Z,29.16
2023-06-29T15:06:08.727Z,29.38
2023-06-29T15:08:36.952Z,29.32
2023-06-29T15:11:05.157Z,29.00
2023-06-29T15:13:33.457Z,29.19
2023-06-29T15:16:03.953Z,29.08
2023-06-29T15:18:34.389Z,29.02
2023-06-29T15:21:07.184Z,28.69
2023-06-29T15:23:34.866Z,29.10
2023-06-29T15:26:04.348Z,28.84
2023-06-29T15:28:32.631Z,29.13
2023-06-29T15:31:00.934Z,29.09
2023-06-29T15:33:28.615Z,29.15
2023-06-29T15:35:56.845Z,29.23
2023-06-29T15:38:24.580Z,28.85
2023-06-29T15:40:52.931Z,28.93
2023-06-29T15:43:21.482Z,29.18
2023-06-29T15:45:49.240Z,29.26
2023-06-29T15:48:17.041Z,28.40
2023-06-29T15:50:45.951Z,28.25
2023-06-29T15:53:16.225Z,28.24
2023-06-29T15:55:44.789Z,28.14
2023-06-29T15:58:13.719Z,28.05
2023-06-29T16:00:41.354Z,28.11
2023-06-29T16:03:11.810Z,28.10
2023-06-29T16:05:39.918Z,28.24
2023-06-29T16:08:07.690Z,28.18
2023-06-29T16:10:35.839Z,28.30
2023-06-29T16:13:03.588Z,28.05
2023-06-29T16:15:31.428Z,27.83
2023-06-29T16:17:59.658Z,27.88
2023-06-29T16:20:27.505Z,27.78
2023-06-29T16:22:55.672Z,27.80
2023-06-29T16:25:28.683Z,27.59
2023-06-29T16:27:56.541Z,27.49
2023-06-29T16:30:25.076Z,27.48
2023-06-29T16:32:52.592Z,27.53
2023-06-29T16:35:20.398Z,27.56
2023-06-29T16:37:51.857Z,27.46
2023-06-29T16:40:19.588Z,27.37
2023-06-29T16:42:47.453Z,27.65
2023-06-29T16:45:17.777Z,27.64
2023-06-29T16:47:45.530Z,27.61
2023-06-29T16:50:14.675Z,27.67
2023-06-29T16:52:43.026Z,27.61
2023-06-29T16:55:11.920Z,27.48
2023-06-29T16:57:39.591Z,27.48
2023-06-29T17:00:09.571Z,27.37
2023-06-29T17:02:37.445Z,27.46
2023-06-29T17:05:08.220Z,27.46
2023-06-29T17:07:36.580Z,27.51
2023-06-29T17:10:04.694Z,27.37
2023-06-29T17:12:32.725Z,27.31
2023-06-29T17:15:00.809Z,27.41
2023-06-29T17:17:28.565Z,27.41
2023-06-29T17:19:58.580Z,27.35
2023-06-29T17:22:29.004Z,27.28
2023-06-29T17:24:58.595Z,27.23
2023-06-29T17:27:26.729Z,26.93
2023-06-29T17:29:54.676Z,26.79
2023-06-29T17:32:22.642Z,26.75
2023-06-29T17:34:50.947Z,26.59
2023-06-29T17:37:18.775Z,26.58
2023-06-29T17:39:46.601Z,26.36
2023-06-29T17:42:22.856Z,26.28
2023-06-29T17:44:54.056Z,26.25
2023-06-29T17:47:22.953Z,26.35
2023-06-29T17:49:51.317Z,26.29
2023-06-29T17:52:19.645Z,26.19
2023-06-29T17:54:51.406Z,26.23
2023-06-29T17:57:19.814Z,26.18
2023-06-29T17:59:48.175Z,26.01
2023-06-29T18:02:16.923Z,25.83
2023-06-29T18:04:45.411Z,25.72
2023-06-29T18:07:13.847Z,25.59
2023-06-29T18:09:43.393Z,25.62
2023-06-29T18:12:11.427Z,25.61
2023-06-29T18:14:42.760Z,25.43
2023-06-29T18:17:12.072Z,25.30
2023-06-29T18:19:41.423Z,25.22
2023-06-29T18:22:10.266Z,25.53
2023-06-29T18:24:43.844Z,25.87
2023-06-29T18:27:12.369Z,25.76
2023-06-29T18:29:42.889Z,25.56
2023-06-29T18:32:11.968Z,25.41
2023-06-29T18:34:41.662Z,25.25
2023-06-29T18:37:12.312Z,25.11
2023-06-29T18:39:43.160Z,24.91
2023-06-29T18:42:12.629Z,24.76
2023-06-29T18:44:43.903Z,24.47
2023-06-29T18:47:13.859Z,24.33
2023-06-29T18:49:52.402Z,24.31
2023-06-29T18:52:21.507Z,24.19
2023-06-29T18:54:51.699Z,24.00
2023-06-29T18:57:18.868Z,23.96
2023-06-29T18:59:47.001Z,23.82
2023-06-29T19:02:15.518Z,23.72
2023-06-29T19:04:46.194Z,23.64
2023-06-29T19:07:16.200Z,23.49
2023-06-29T19:09:47.825Z,23.47
2023-06-29T19:12:15.519Z,23.45
2023-06-29T19:14:43.422Z,23.35
2023-06-29T19:17:11.613Z,23.24
2023-06-29T19:19:39.184Z,23.02
2023-06-29T19:22:09.341Z,22.79
2023-06-29T19:24:40.871Z,22.60
2023-06-29T19:27:08.508Z,22.43
2023-06-29T19:29:36.037Z,22.26
2023-06-29T19:32:10.174Z,22.15
2023-06-29T19:34:40.492Z,22.05
2023-06-29T19:37:08.715Z,21.96
2023-06-29T19:39:36.583Z,21.89
2023-06-29T19:42:10.080Z,21.79
2023-06-29T19:44:37.670Z,21.64
2023-06-29T19:47:05.358Z,21.50
2023-06-29T19:49:33.291Z,21.41
2023-06-29T19:52:05.628Z,21.37
2023-06-29T19:54:33.427Z,21.23
2023-06-29T19:57:01.543Z,21.12
2023-06-29T19:59:31.092Z,20.98
2023-06-29T20:02:01.916Z,20.96
2023-06-29T20:04:32.731Z,20.91
2023-06-29T20:07:02.953Z,20.85
2023-06-29T20:09:30.970Z,20.77
2023-06-29T20:11:59.214Z,20.66
2023-06-29T20:14:30.056Z,20.61
2023-06-29T20:16:59.212Z,20.56
2023-06-29T20:19:27.674Z,20.44
2023-06-29T20:21:59.070Z,20.39
2023-06-29T20:24:28.585Z,20.35
2023-06-29T20:26:57.063Z,20.31
2023-06-29T20:29:25.315Z,20.28
2023-06-29T20:31:54.474Z,20.18
2023-06-29T20:34:23.173Z,20.09
2023-06-29T20:36:53.859Z,20.13
2023-06-29T20:39:23.650Z,20.12
2023-06-29T20:41:52.303Z,20.13
2023-06-29T20:44:20.833Z,20.15
2023-06-29T20:46:50.880Z,20.11
2023-06-29T20:49:19.437Z,20.03
2023-06-29T20:51:47.218Z,19.98
2023-06-29T20:54:15.369Z,19.91
2023-06-29T20:56:45.062Z,19.82
2023-06-29T20:59:13.264Z,19.80
2023-06-29T21:01:41.703Z,19.74
2023-06-29T21:04:10.688Z,19.68
2023-06-29T21:06:38.665Z,19.61
2023-06-29T21:09:06.626Z,19.49
2023-06-29T21:11:35.433Z,19.41
2023-06-29T21:14:04.286Z,19.32
2023-06-29T21:16:32.673Z,19.27
2023-06-29T21:22:30.490Z,19.25
2023-06-29T21:24:58.708Z,19.20
2023-06-29T21:27:26.420Z,19.14
2023-06-29T21:29:55.363Z,19.03
2023-06-29T21:32:23.457Z,18.96
2023-06-29T21:34:52.153Z,18.89
2023-06-29T21:37:21.101Z,18.81
2023-06-29T21:39:49.022Z,18.80
2023-06-29T21:42:16.768Z,18.79
2023-06-29T21:44:46.556Z,18.80
2023-06-29T21:47:17.242Z,18.81
2023-06-29T21:49:45.041Z,18.77
2023-06-29T21:52:12.654Z,18.74
2023-06-29T21:54:40.598Z,18.67
2023-06-29T21:57:08.346Z,18.60
2023-06-29T21:59:36.028Z,18.59
2023-06-29T22:02:04.276Z,18.57
2023-06-29T22:04:32.237Z,18.54
2023-06-29T22:07:11.567Z,18.49
2023-06-29T22:09:43.206Z,18.46
2023-06-29T22:12:12.658Z,18.43
2023-06-29T22:14:40.426Z,18.40
2023-06-29T22:17:08.344Z,18.36
2023-06-29T22:19:37.942Z,18.32
2023-06-29T22:22:08.708Z,18.29
2023-06-29T22:24:39.364Z,18.26
2023-06-29T22:27:06.924Z,18.12
2023-06-29T22:29:34.054Z,18.04
2023-06-29T22:32:01.462Z,17.93
2023-06-29T22:34:28.600Z,17.91
2023-06-29T22:37:23.481Z,17.85
2023-06-29T22:39:50.893Z,17.68
2023-06-29T22:42:19.470Z,17.72
2023-06-29T22:44:46.693Z,17.73
2023-06-29T22:47:14.417Z,17.70
2023-06-29T22:49:42.680Z,17.71
2023-06-29T22:52:10.733Z,17.71
2023-06-29T22:54:38.121Z,17.75
2023-06-29T22:57:05.617Z,17.77
2023-06-29T22:59:32.767Z,17.71
2023-06-29T23:02:00.287Z,17.70
2023-06-29T23:04:27.708Z,17.65
2023-06-29T23:06:55.003Z,17.60
2023-06-29T23:09:23.458Z,17.52
2023-06-29T23:11:50.701Z,17.44
2023-06-29T23:14:18.887Z,17.43
2023-06-29T23:16:47.908Z,17.42
2023-06-29T23:19:15.445Z,17.40
2023-06-29T23:25:13.546Z,17.42
2023-06-29T23:31:15.607Z,17.35
2023-06-29T23:33:43.899Z,17.36
2023-06-29T23:36:12.337Z,17.37
2023-06-29T23:38:40.035Z,17.34
2023-06-29T23:41:07.917Z,17.27
2023-06-29T23:43:35.822Z,17.16
2023-06-29T23:46:03.574Z,17.12
2023-06-29T23:48:31.542Z,17.04
2023-06-29T23:50:59.244Z,17.02
2023-06-29T23:53:26.896Z,17.00
2023-06-29T23:55:56.117Z,16.92
2023-06-29T23:58:23.844Z,16.88
